sensor_id;sensor_type;location;lat;lon;timestamp;pressure;altitude;pressure_sealevel;temperature;humidity
23339;BME280;11841;49.368;20.962;2022-10-17T00:01:47;96985.81;;;8.02;88.66
23339;BME280;11841;49.368;20.962;2022-10-17T00:04:13;96989.44;;;8.01;87.94
23339;BME280;11841;49.368;20.962;2022-10-17T00:06:40;96987.81;;;8.00;87.93
23339;BME280;11841;49.368;20.962;2022-10-17T00:09:06;96987.81;;;8.00;87.76
23339;BME280;11841;49.368;20.962;2022-10-17T00:11:33;96985.50;;;7.97;87.93
23339;BME280;11841;49.368;20.962;2022-10-17T00:13:59;96984.00;;;7.95;87.83
23339;BME280;11841;49.368;20.962;2022-10-17T00:16:27;96990.63;;;7.91;87.70
23339;BME280;11841;49.368;20.962;2022-10-17T00:18:53;96984.69;;;7.89;87.90
23339;BME280;11841;49.368;20.962;2022-10-17T00:21:20;96995.91;;;7.83;87.72
23339;BME280;11841;49.368;20.962;2022-10-17T00:23:47;96995.78;;;7.76;87.88
23339;BME280;11841;49.368;20.962;2022-10-17T00:26:13;96983.91;;;7.72;88.31
23339;BME280;11841;49.368;20.962;2022-10-17T00:28:40;96997.91;;;7.73;88.06
23339;BME280;11841;49.368;20.962;2022-10-17T00:31:06;96993.66;;;7.72;88.19
23339;BME280;11841;49.368;20.962;2022-10-17T00:33:33;96994.97;;;7.68;88.61
23339;BME280;11841;49.368;20.962;2022-10-17T00:36:01;96990.03;;;7.65;88.26
23339;BME280;11841;49.368;20.962;2022-10-17T00:38:27;96999.59;;;7.66;88.83
23339;BME280;11841;49.368;20.962;2022-10-17T00:40:54;96995.97;;;7.67;88.29
23339;BME280;11841;49.368;20.962;2022-10-17T00:43:25;96991.66;;;7.66;88.27
23339;BME280;11841;49.368;20.962;2022-10-17T00:45:52;96999.09;;;7.62;88.12
23339;BME280;11841;49.368;20.962;2022-10-17T00:48:18;97001.09;;;7.60;87.89
23339;BME280;11841;49.368;20.962;2022-10-17T00:50:48;97007.34;;;7.59;88.08
23339;BME280;11841;49.368;20.962;2022-10-17T00:53:15;97003.88;;;7.59;87.96
23339;BME280;11841;49.368;20.962;2022-10-17T00:55:48;97000.59;;;7.57;88.46
23339;BME280;11841;49.368;20.962;2022-10-17T00:58:16;97001.41;;;7.57;88.25
23339;BME280;11841;49.368;20.962;2022-10-17T01:00:43;96996.13;;;7.57;88.43
23339;BME280;11841;49.368;20.962;2022-10-17T01:03:11;96993.31;;;7.59;88.00
23339;BME280;11841;49.368;20.962;2022-10-17T01:05:37;96988.88;;;7.59;88.13
23339;BME280;11841;49.368;20.962;2022-10-17T01:08:04;96994.66;;;7.55;87.69
23339;BME280;11841;49.368;20.962;2022-10-17T01:10:40;96989.72;;;7.52;88.08
23339;BME280;11841;49.368;20.962;2022-10-17T01:34:02;97004.56;;;7.36;87.98
23339;BME280;11841;49.368;20.962;2022-10-17T01:39:11;97007.19;;;7.28;88.22
23339;BME280;11841;49.368;20.962;2022-10-17T01:46:35;97004.41;;;7.30;88.20
23339;BME280;11841;49.368;20.962;2022-10-17T01:49:02;97009.66;;;7.30;88.23
23339;BME280;11841;49.368;20.962;2022-10-17T01:51:32;97011.00;;;7.26;88.41
23339;BME280;11841;49.368;20.962;2022-10-17T01:54:01;97007.53;;;7.25;88.38
23339;BME280;11841;49.368;20.962;2022-10-17T01:56:30;97001.75;;;7.22;88.39
23339;BME280;11841;49.368;20.962;2022-10-17T01:58:59;97001.25;;;7.18;88.19
23339;BME280;11841;49.368;20.962;2022-10-17T02:01:27;96997.97;;;7.16;88.48
23339;BME280;11841;49.368;20.962;2022-10-17T02:03:56;97000.25;;;7.11;88.04
23339;BME280;11841;49.368;20.962;2022-10-17T02:06:24;97002.75;;;7.05;88.22
23339;BME280;11841;49.368;20.962;2022-10-17T02:08:50;96997.97;;;7.00;89.71
23339;BME280;11841;49.368;20.962;2022-10-17T02:11:17;97002.41;;;7.00;89.34
23339;BME280;11841;49.368;20.962;2022-10-17T02:21:22;97009.19;;;7.10;88.60
23339;BME280;11841;49.368;20.962;2022-10-17T02:24:04;97013.13;;;7.06;88.48
23339;BME280;11841;49.368;20.962;2022-10-17T02:26:34;97009.19;;;7.02;88.90
23339;BME280;11841;49.368;20.962;2022-10-17T02:31:39;97007.19;;;7.04;88.82
23339;BME280;11841;49.368;20.962;2022-10-17T02:34:08;97005.38;;;7.05;88.45
23339;BME280;11841;49.368;20.962;2022-10-17T02:36:41;97008.84;;;7.05;89.03
23339;BME280;11841;49.368;20.962;2022-10-17T02:39:09;97007.19;;;7.04;88.11
23339;BME280;11841;49.368;20.962;2022-10-17T02:41:36;97006.69;;;7.01;88.11
23339;BME280;11841;49.368;20.962;2022-10-17T02:44:03;97007.19;;;6.96;88.12
23339;BME280;11841;49.368;20.962;2022-10-17T02:46:30;97009.16;;;6.94;88.38
23339;BME280;11841;49.368;20.962;2022-10-17T02:49:02;97010.97;;;6.94;88.33
23339;BME280;11841;49.368;20.962;2022-10-17T02:51:48;97012.78;;;6.93;87.96
23339;BME280;11841;49.368;20.962;2022-10-17T02:54:19;97011.13;;;6.92;88.04
23339;BME280;11841;49.368;20.962;2022-10-17T02:56:50;97022.00;;;6.89;87.77
23339;BME280;11841;49.368;20.962;2022-10-17T02:59:19;97020.69;;;6.85;88.07
23339;BME280;11841;49.368;20.962;2022-10-17T03:01:48;97019.03;;;6.84;88.20
23339;BME280;11841;49.368;20.962;2022-10-17T03:04:14;97022.31;;;6.86;87.59
23339;BME280;11841;49.368;20.962;2022-10-17T03:06:41;97021.00;;;6.82;87.92
23339;BME280;11841;49.368;20.962;2022-10-17T03:09:08;97024.63;;;6.81;87.57
23339;BME280;11841;49.368;20.962;2022-10-17T03:11:34;97018.00;;;6.77;87.96
23339;BME280;11841;49.368;20.962;2022-10-17T03:14:01;97018.66;;;6.71;87.65
23339;BME280;11841;49.368;20.962;2022-10-17T03:16:27;97020.97;;;6.66;88.35
23339;BME280;11841;49.368;20.962;2022-10-17T03:18:53;97029.72;;;6.67;88.26
23339;BME280;11841;49.368;20.962;2022-10-17T03:21:20;97023.94;;;6.71;88.28
23339;BME280;11841;49.368;20.962;2022-10-17T03:23:46;97027.25;;;6.73;88.31
23339;BME280;11841;49.368;20.962;2022-10-17T03:26:13;97027.53;;;6.70;87.81
23339;BME280;11841;49.368;20.962;2022-10-17T03:28:39;97026.25;;;6.66;88.13
23339;BME280;11841;49.368;20.962;2022-10-17T03:31:09;97044.66;;;6.58;88.76
23339;BME280;11841;49.368;20.962;2022-10-17T03:33:36;97041.03;;;6.59;88.73
23339;BME280;11841;49.368;20.962;2022-10-17T03:36:09;97044.66;;;6.58;88.96
23339;BME280;11841;49.368;20.962;2022-10-17T03:38:37;97046.13;;;6.61;88.84
23339;BME280;11841;49.368;20.962;2022-10-17T03:41:04;97043.00;;;6.57;88.44
23339;BME280;11841;49.368;20.962;2022-10-17T03:43:30;97047.59;;;6.55;88.30
23339;BME280;11841;49.368;20.962;2022-10-17T03:45:57;97043.66;;;6.51;88.38
23339;BME280;11841;49.368;20.962;2022-10-17T03:48:24;97046.75;;;6.47;88.61
23339;BME280;11841;49.368;20.962;2022-10-17T03:50:50;97052.50;;;6.42;89.08
23339;BME280;11841;49.368;20.962;2022-10-17T03:53:17;97065.50;;;6.44;89.47
23339;BME280;11841;49.368;20.962;2022-10-17T03:55:43;97064.31;;;6.38;89.50
23339;BME280;11841;49.368;20.962;2022-10-17T03:58:10;97058.94;;;6.40;89.25
23339;BME280;11841;49.368;20.962;2022-10-17T04:00:36;97060.25;;;6.44;89.30
23339;BME280;11841;49.368;20.962;2022-10-17T04:03:02;97063.72;;;6.44;88.49
23339;BME280;11841;49.368;20.962;2022-10-17T04:05:29;97057.94;;;6.41;88.79
23339;BME280;11841;49.368;20.962;2022-10-17T04:07:55;97060.72;;;6.39;88.48
23339;BME280;11841;49.368;20.962;2022-10-17T04:10:26;97065.31;;;6.37;88.44
23339;BME280;11841;49.368;20.962;2022-10-17T04:12:52;97058.53;;;6.35;88.59
23339;BME280;11841;49.368;20.962;2022-10-17T04:15:18;97065.81;;;6.33;88.64
23339;BME280;11841;49.368;20.962;2022-10-17T04:17:45;97069.25;;;6.33;88.21
23339;BME280;11841;49.368;20.962;2022-10-17T04:20:13;97063.63;;;6.28;88.65
23339;BME280;11841;49.368;20.962;2022-10-17T04:22:40;97062.31;;;6.24;88.72
23339;BME280;11841;49.368;20.962;2022-10-17T04:25:06;97073.81;;;6.23;89.12
23339;BME280;11841;49.368;20.962;2022-10-17T04:27:33;97079.06;;;6.23;89.49
23339;BME280;11841;49.368;20.962;2022-10-17T04:29:59;97085.00;;;6.25;88.97
23339;BME280;11841;49.368;20.962;2022-10-17T04:32:25;97086.69;;;6.26;89.17
23339;BME280;11841;49.368;20.962;2022-10-17T04:34:52;97084.53;;;6.30;88.92
23339;BME280;11841;49.368;20.962;2022-10-17T04:37:19;97084.41;;;6.31;88.62
23339;BME280;11841;49.368;20.962;2022-10-17T04:39:45;97087.03;;;6.31;88.86
23339;BME280;11841;49.368;20.962;2022-10-17T04:42:11;97087.69;;;6.33;88.00
23339;BME280;11841;49.368;20.962;2022-10-17T04:44:38;97089.66;;;6.31;88.46
23339;BME280;11841;49.368;20.962;2022-10-17T04:47:04;97091.63;;;6.29;88.03
23339;BME280;11841;49.368;20.962;2022-10-17T04:49:31;97091.94;;;6.26;87.97
23339;BME280;11841;49.368;20.962;2022-10-17T04:51:57;97092.56;;;6.20;88.35
23339;BME280;11841;49.368;20.962;2022-10-17T04:54:24;97098.13;;;6.17;88.32
23339;BME280;11841;49.368;20.962;2022-10-17T04:56:50;97098.47;;;6.14;88.46
23339;BME280;11841;49.368;20.962;2022-10-17T04:59:16;97098.91;;;6.09;88.57
23339;BME280;11841;49.368;20.962;2022-10-17T05:01:43;97104.66;;;6.05;88.34
23339;BME280;11841;49.368;20.962;2022-10-17T05:04:09;97104.13;;;6.01;88.95
23339;BME280;11841;49.368;20.962;2022-10-17T05:06:36;97105.13;;;6.00;88.80
23339;BME280;11841;49.368;20.962;2022-10-17T05:09:03;97110.22;;;6.02;89.25
23339;BME280;11841;49.368;20.962;2022-10-17T05:11:29;97108.13;;;6.05;89.33
23339;BME280;11841;49.368;20.962;2022-10-17T05:13:56;97106.00;;;6.09;89.46
23339;BME280;11841;49.368;20.962;2022-10-17T05:16:24;97111.25;;;6.09;88.92
23339;BME280;11841;49.368;20.962;2022-10-17T05:18:51;97111.56;;;6.06;88.55
23339;BME280;11841;49.368;20.962;2022-10-17T05:21:19;97111.56;;;6.06;88.86
23339;BME280;11841;49.368;20.962;2022-10-17T05:23:45;97116.81;;;6.06;88.70
23339;BME280;11841;49.368;20.962;2022-10-17T05:26:12;97118.94;;;6.02;88.79
23339;BME280;11841;49.368;20.962;2022-10-17T05:28:39;97122.41;;;6.03;89.50
23339;BME280;11841;49.368;20.962;2022-10-17T05:31:06;97136.25;;;6.05;89.19
23339;BME280;11841;49.368;20.962;2022-10-17T05:33:33;97132.47;;;6.07;89.25
23339;BME280;11841;49.368;20.962;2022-10-17T05:35:59;97131.50;;;6.08;89.04
23339;BME280;11841;49.368;20.962;2022-10-17T05:38:26;97132.34;;;6.09;89.16
23339;BME280;11841;49.368;20.962;2022-10-17T05:40:59;97141.88;;;6.10;89.95
23339;BME280;11841;49.368;20.962;2022-10-17T05:43:26;97147.81;;;6.12;90.01
23339;BME280;11841;49.368;20.962;2022-10-17T05:45:52;97140.59;;;6.14;90.73
23339;BME280;11841;49.368;20.962;2022-10-17T05:48:19;97139.75;;;6.13;90.43
23339;BME280;11841;49.368;20.962;2022-10-17T05:50:45;97145.53;;;6.17;90.03
23339;BME280;11841;49.368;20.962;2022-10-17T05:53:12;97142.75;;;6.19;89.67
23339;BME280;11841;49.368;20.962;2022-10-17T05:55:38;97146.06;;;6.21;89.64
23339;BME280;11841;49.368;20.962;2022-10-17T05:58:04;97144.09;;;6.23;89.74
23339;BME280;11841;49.368;20.962;2022-10-17T06:00:31;97151.84;;;6.24;89.70
23339;BME280;11841;49.368;20.962;2022-10-17T06:02:57;97155.44;;;6.23;89.72
23339;BME280;11841;49.368;20.962;2022-10-17T06:05:24;97159.06;;;6.22;90.59
23339;BME280;11841;49.368;20.962;2022-10-17T06:07:50;97154.47;;;6.24;90.19
23339;BME280;11841;49.368;20.962;2022-10-17T06:10:23;97164.69;;;6.27;89.93
23339;BME280;11841;49.368;20.962;2022-10-17T06:12:49;97164.84;;;6.26;89.94
23339;BME280;11841;49.368;20.962;2022-10-17T06:15:16;97172.91;;;6.24;90.24
23339;BME280;11841;49.368;20.962;2022-10-17T06:17:42;97170.97;;;6.26;90.53
23339;BME280;11841;49.368;20.962;2022-10-17T06:20:09;97179.22;;;6.31;90.52
23339;BME280;11841;49.368;20.962;2022-10-17T06:22:35;97183.03;;;6.37;90.56
23339;BME280;11841;49.368;20.962;2022-10-17T06:25:02;97186.66;;;6.36;90.27
23339;BME280;11841;49.368;20.962;2022-10-17T06:27:28;97187.13;;;6.31;90.62
23339;BME280;11841;49.368;20.962;2022-10-17T06:29:54;97188.09;;;6.30;91.27
23339;BME280;11841;49.368;20.962;2022-10-17T06:32:21;97187.41;;;6.28;91.30
23339;BME280;11841;49.368;20.962;2022-10-17T06:34:47;97186.44;;;6.29;91.79
23339;BME280;11841;49.368;20.962;2022-10-17T06:37:14;97189.44;;;6.34;91.83
23339;BME280;11841;49.368;20.962;2022-10-17T06:39:40;97194.41;;;6.37;92.15
23339;BME280;11841;49.368;20.962;2022-10-17T06:42:07;97194.59;;;6.44;91.91
23339;BME280;11841;49.368;20.962;2022-10-17T06:44:33;97193.47;;;6.46;92.00
23339;BME280;11841;49.368;20.962;2022-10-17T06:46:59;97192.31;;;6.49;91.83
23339;BME280;11841;49.368;20.962;2022-10-17T06:49:26;97200.06;;;6.50;92.06
23339;BME280;11841;49.368;20.962;2022-10-17T06:51:53;97200.91;;;6.51;92.24
23339;BME280;11841;49.368;20.962;2022-10-17T06:54:19;97198.44;;;6.49;92.54
23339;BME280;11841;49.368;20.962;2022-10-17T06:56:46;97205.06;;;6.53;92.03
23339;BME280;11841;49.368;20.962;2022-10-17T06:59:12;97207.38;;;6.56;92.61
23339;BME280;11841;49.368;20.962;2022-10-17T07:01:40;97197.78;;;6.55;93.14
23339;BME280;11841;49.368;20.962;2022-10-17T07:04:12;97209.00;;;6.57;93.26
23339;BME280;11841;49.368;20.962;2022-10-17T07:06:38;97201.63;;;6.61;93.39
23339;BME280;11841;49.368;20.962;2022-10-17T07:09:05;97200.50;;;6.63;94.04
23339;BME280;11841;49.368;20.962;2022-10-17T07:11:32;97195.88;;;6.65;93.61
23339;BME280;11841;49.368;20.962;2022-10-17T07:14:00;97201.50;;;6.70;93.67
23339;BME280;11841;49.368;20.962;2022-10-17T07:16:26;97206.47;;;6.73;95.06
23339;BME280;11841;49.368;20.962;2022-10-17T07:18:53;97205.31;;;6.76;94.38
23339;BME280;11841;49.368;20.962;2022-10-17T07:21:20;97202.25;;;6.80;94.82
23339;BME280;11841;49.368;20.962;2022-10-17T07:23:46;97196.66;;;6.83;94.71
23339;BME280;11841;49.368;20.962;2022-10-17T07:26:13;97195.31;;;6.87;95.21
23339;BME280;11841;49.368;20.962;2022-10-17T07:28:41;97202.63;;;6.93;95.88
23339;BME280;11841;49.368;20.962;2022-10-17T07:31:12;97198.66;;;6.97;96.46
23339;BME280;11841;49.368;20.962;2022-10-17T07:33:40;97206.63;;;7.05;96.87
23339;BME280;11841;49.368;20.962;2022-10-17T07:36:07;97201.88;;;7.09;97.18
23339;BME280;11841;49.368;20.962;2022-10-17T07:38:33;97195.28;;;7.13;97.44
23339;BME280;11841;49.368;20.962;2022-10-17T07:41:00;97202.56;;;7.19;98.03
23339;BME280;11841;49.368;20.962;2022-10-17T07:43:27;97206.84;;;7.28;98.71
23339;BME280;11841;49.368;20.962;2022-10-17T07:45:54;97195.53;;;7.35;98.78
23339;BME280;11841;49.368;20.962;2022-10-17T07:48:21;97200.00;;;7.43;99.71
23339;BME280;11841;49.368;20.962;2022-10-17T07:50:47;97197.38;;;7.51;99.62
23339;BME280;11841;49.368;20.962;2022-10-17T07:53:14;97192.28;;;7.58;100.00
23339;BME280;11841;49.368;20.962;2022-10-17T07:55:41;97194.91;;;7.66;100.00
23339;BME280;11841;49.368;20.962;2022-10-17T07:58:07;97194.94;;;7.74;100.00
23339;BME280;11841;49.368;20.962;2022-10-17T08:00:35;97202.22;;;7.80;100.00
23339;BME280;11841;49.368;20.962;2022-10-17T08:03:02;97196.75;;;7.89;100.00
23339;BME280;11841;49.368;20.962;2022-10-17T08:05:29;97206.34;;;7.98;100.00
23339;BME280;11841;49.368;20.962;2022-10-17T08:07:56;97200.09;;;8.07;100.00
23339;BME280;11841;49.368;20.962;2022-10-17T08:10:22;97192.97;;;8.16;100.00
23339;BME280;11841;49.368;20.962;2022-10-17T08:12:53;97188.69;;;8.23;100.00
23339;BME280;11841;49.368;20.962;2022-10-17T08:15:20;97195.47;;;8.33;100.00
23339;BME280;11841;49.368;20.962;2022-10-17T08:17:46;97196.44;;;8.40;100.00
23339;BME280;11841;49.368;20.962;2022-10-17T08:20:13;97187.69;;;8.48;100.00
23339;BME280;11841;49.368;20.962;2022-10-17T08:22:39;97192.78;;;8.57;100.00
23339;BME280;11841;49.368;20.962;2022-10-17T08:25:06;97189.63;;;8.70;100.00
23339;BME280;11841;49.368;20.962;2022-10-17T08:27:33;97197.16;;;8.89;100.00
23339;BME280;11841;49.368;20.962;2022-10-17T08:29:59;97199.09;;;9.03;100.00
23339;BME280;11841;49.368;20.962;2022-10-17T08:32:26;97198.09;;;9.12;100.00
23339;BME280;11841;49.368;20.962;2022-10-17T08:34:54;97196.53;;;9.26;100.00
23339;BME280;11841;49.368;20.962;2022-10-17T08:37:21;97192.88;;;9.57;100.00
23339;BME280;11841;49.368;20.962;2022-10-17T08:39:47;97194.50;;;9.66;100.00
23339;BME280;11841;49.368;20.962;2022-10-17T08:45:10;97193.75;;;9.81;100.00
23339;BME280;11841;49.368;20.962;2022-10-17T08:47:41;97196.69;;;9.86;100.00
23339;BME280;11841;49.368;20.962;2022-10-17T08:50:12;97200.44;;;9.91;100.00
23339;BME280;11841;49.368;20.962;2022-10-17T08:52:45;97198.56;;;10.00;100.00
23339;BME280;11841;49.368;20.962;2022-10-17T08:55:32;97190.06;;;10.12;100.00
23339;BME280;11841;49.368;20.962;2022-10-17T08:58:16;97187.63;;;10.25;100.00
23339;BME280;11841;49.368;20.962;2022-10-17T09:00:45;97185.34;;;10.37;100.00
23339;BME280;11841;49.368;20.962;2022-10-17T09:11:24;97181.88;;;11.03;100.00
23339;BME280;11841;49.368;20.962;2022-10-17T09:19:06;97176.00;;;11.57;100.00
23339;BME280;11841;49.368;20.962;2022-10-17T09:21:38;97175.03;;;11.79;100.00
23339;BME280;11841;49.368;20.962;2022-10-17T09:24:22;97173.72;;;11.90;100.00
23339;BME280;11841;49.368;20.962;2022-10-17T09:26:50;97180.50;;;11.92;100.00
23339;BME280;11841;49.368;20.962;2022-10-17T09:29:21;97176.63;;;11.95;100.00
23339;BME280;11841;49.368;20.962;2022-10-17T09:32:01;97184.69;;;12.01;100.00
23339;BME280;11841;49.368;20.962;2022-10-17T09:34:29;97179.13;;;12.18;100.00
23339;BME280;11841;49.368;20.962;2022-10-17T09:36:57;97174.94;;;12.30;100.00
23339;BME280;11841;49.368;20.962;2022-10-17T09:39:24;97174.78;;;12.38;100.00
23339;BME280;11841;49.368;20.962;2022-10-17T09:41:52;97176.31;;;12.47;100.00
23339;BME280;11841;49.368;20.962;2022-10-17T09:44:21;97178.84;;;12.61;100.00
23339;BME280;11841;49.368;20.962;2022-10-17T09:49:34;97178.19;;;12.80;100.00
23339;BME280;11841;49.368;20.962;2022-10-17T09:52:05;97181.50;;;12.89;100.00
23339;BME280;11841;49.368;20.962;2022-10-17T09:54:41;97180.59;;;13.03;100.00
23339;BME280;11841;49.368;20.962;2022-10-17T09:57:09;97178.44;;;13.19;100.00
23339;BME280;11841;49.368;20.962;2022-10-17T10:04:34;97177.16;;;13.63;99.70
23339;BME280;11841;49.368;20.962;2022-10-17T10:07:21;97178.50;;;13.86;98.13
23339;BME280;11841;49.368;20.962;2022-10-17T10:09:54;97179.72;;;14.03;96.89
23339;BME280;11841;49.368;20.962;2022-10-17T10:12:28;97179.78;;;14.23;94.95
23339;BME280;11841;49.368;20.962;2022-10-17T10:14:56;97169.13;;;14.42;94.36
23339;BME280;11841;49.368;20.962;2022-10-17T10:17:24;97180.22;;;14.46;94.68
23339;BME280;11841;49.368;20.962;2022-10-17T10:19:52;97176.31;;;14.55;93.88
23339;BME280;11841;49.368;20.962;2022-10-17T10:22:20;97179.38;;;14.72;92.28
23339;BME280;11841;49.368;20.962;2022-10-17T10:27:33;97181.19;;;14.97;90.30
23339;BME280;11841;49.368;20.962;2022-10-17T10:30:00;97176.88;;;15.03;90.96
23339;BME280;11841;49.368;20.962;2022-10-17T10:32:28;97169.50;;;15.05;92.00
23339;BME280;11841;49.368;20.962;2022-10-17T10:35:18;97173.16;;;15.10;90.60
23339;BME280;11841;49.368;20.962;2022-10-17T10:37:49;97166.56;;;15.19;91.27
23339;BME280;11841;49.368;20.962;2022-10-17T10:42:48;97161.56;;;15.49;88.07
23339;BME280;11841;49.368;20.962;2022-10-17T10:45:28;97168.25;;;15.64;89.37
23339;BME280;11841;49.368;20.962;2022-10-17T10:48:31;97156.69;;;15.77;88.24
23339;BME280;11841;49.368;20.962;2022-10-17T10:51:00;97156.44;;;15.85;87.49
23339;BME280;11841;49.368;20.962;2022-10-17T10:56:09;97154.09;;;15.95;86.18
23339;BME280;11841;49.368;20.962;2022-10-17T11:01:21;97151.81;;;16.05;85.63
23339;BME280;11841;49.368;20.962;2022-10-17T11:04:04;97150.09;;;16.11;85.78
23339;BME280;11841;49.368;20.962;2022-10-17T11:06:35;97151.75;;;16.12;85.79
23339;BME280;11841;49.368;20.962;2022-10-17T11:11:51;97146.53;;;16.23;84.06
23339;BME280;11841;49.368;20.962;2022-10-17T11:17:10;97155.31;;;16.30;83.57
23339;BME280;11841;49.368;20.962;2022-10-17T11:22:27;97143.09;;;16.41;83.85
23339;BME280;11841;49.368;20.962;2022-10-17T11:25:04;97145.09;;;16.45;83.50
23339;BME280;11841;49.368;20.962;2022-10-17T11:27:31;97141.56;;;16.51;83.86
23339;BME280;11841;49.368;20.962;2022-10-17T11:29:59;97149.53;;;16.58;82.81
23339;BME280;11841;49.368;20.962;2022-10-17T11:32:26;97135.50;;;16.62;82.43
23339;BME280;11841;49.368;20.962;2022-10-17T11:35:00;97139.81;;;16.63;83.11
23339;BME280;11841;49.368;20.962;2022-10-17T11:37:29;97143.56;;;16.62;83.36
23339;BME280;11841;49.368;20.962;2022-10-17T11:39:58;97136.13;;;16.64;83.01
23339;BME280;11841;49.368;20.962;2022-10-17T11:42:27;97133.59;;;16.69;83.83
23339;BME280;11841;49.368;20.962;2022-10-17T11:44:58;97136.44;;;16.74;83.59
23339;BME280;11841;49.368;20.962;2022-10-17T11:47:31;97136.81;;;16.78;83.74
23339;BME280;11841;49.368;20.962;2022-10-17T11:53:13;97131.63;;;16.83;82.87
23339;BME280;11841;49.368;20.962;2022-10-17T11:55:41;97133.84;;;16.86;82.73
23339;BME280;11841;49.368;20.962;2022-10-17T11:58:18;97132.78;;;16.87;82.67
23339;BME280;11841;49.368;20.962;2022-10-17T12:00:56;97132.16;;;16.92;82.54
23339;BME280;11841;49.368;20.962;2022-10-17T12:06:03;97132.81;;;17.05;81.72
23339;BME280;11841;49.368;20.962;2022-10-17T12:08:40;97130.53;;;17.09;81.70
23339;BME280;11841;49.368;20.962;2022-10-17T12:11:14;97129.91;;;17.07;80.18
23339;BME280;11841;49.368;20.962;2022-10-17T12:13:46;97132.00;;;17.05;80.56
23339;BME280;11841;49.368;20.962;2022-10-17T12:18:45;97143.59;;;16.99;80.37
23339;BME280;11841;49.368;20.962;2022-10-17T12:21:13;97141.50;;;17.01;80.54
23339;BME280;11841;49.368;20.962;2022-10-17T12:23:40;97136.75;;;17.03;79.77
23339;BME280;11841;49.368;20.962;2022-10-17T12:26:07;97135.72;;;17.04;79.69
23339;BME280;11841;49.368;20.962;2022-10-17T12:28:44;97133.78;;;17.11;81.21
23339;BME280;11841;49.368;20.962;2022-10-17T12:33:47;97136.53;;;17.04;80.26
23339;BME280;11841;49.368;20.962;2022-10-17T12:38:44;97131.09;;;17.11;79.62
23339;BME280;11841;49.368;20.962;2022-10-17T12:41:15;97131.91;;;17.11;80.10
23339;BME280;11841;49.368;20.962;2022-10-17T12:43:49;97138.09;;;17.12;79.92
23339;BME280;11841;49.368;20.962;2022-10-17T12:49:02;97128.56;;;17.16;79.76
23339;BME280;11841;49.368;20.962;2022-10-17T12:51:29;97137.19;;;17.18;79.71
23339;BME280;11841;49.368;20.962;2022-10-17T12:54:16;97134.75;;;17.16;79.49
23339;BME280;11841;49.368;20.962;2022-10-17T12:56:46;97138.03;;;17.18;79.86
23339;BME280;11841;49.368;20.962;2022-10-17T12:59:24;97131.69;;;17.13;79.00
23339;BME280;11841;49.368;20.962;2022-10-17T13:01:52;97137.88;;;17.13;78.99
23339;BME280;11841;49.368;20.962;2022-10-17T13:04:20;97127.38;;;17.12;79.55
23339;BME280;11841;49.368;20.962;2022-10-17T13:06:48;97133.78;;;17.11;79.67
23339;BME280;11841;49.368;20.962;2022-10-17T13:09:31;97125.34;;;17.07;79.66
23339;BME280;11841;49.368;20.962;2022-10-17T13:11:59;97130.53;;;17.09;79.95
23339;BME280;11841;49.368;20.962;2022-10-17T13:14:27;97131.31;;;17.09;79.93
23339;BME280;11841;49.368;20.962;2022-10-17T13:17:00;97128.88;;;17.08;80.25
23339;BME280;11841;49.368;20.962;2022-10-17T13:19:28;97133.19;;;17.09;80.66
23339;BME280;11841;49.368;20.962;2022-10-17T13:21:57;97123.50;;;17.08;80.51
23339;BME280;11841;49.368;20.962;2022-10-17T13:26:58;97128.94;;;17.01;81.07
23339;BME280;11841;49.368;20.962;2022-10-17T13:29:25;97124.03;;;16.98;80.95
23339;BME280;11841;49.368;20.962;2022-10-17T13:31:55;97126.72;;;16.98;81.19
23339;BME280;11841;49.368;20.962;2022-10-17T13:34:22;97129.00;;;16.95;81.08
23339;BME280;11841;49.368;20.962;2022-10-17T13:36:50;97122.00;;;16.93;81.16
23339;BME280;11841;49.368;20.962;2022-10-17T13:39:19;97124.69;;;16.93;81.29
23339;BME280;11841;49.368;20.962;2022-10-17T13:42:16;97126.34;;;16.95;81.42
23339;BME280;11841;49.368;20.962;2022-10-17T13:44:43;97129.25;;;16.93;81.05
23339;BME280;11841;49.368;20.962;2022-10-17T13:47:23;97125.13;;;16.90;81.53
23339;BME280;11841;49.368;20.962;2022-10-17T13:49:51;97129.88;;;16.88;81.57
23339;BME280;11841;49.368;20.962;2022-10-17T13:52:21;97121.13;;;16.81;81.37
23339;BME280;11841;49.368;20.962;2022-10-17T13:54:49;97117.69;;;16.74;81.70
23339;BME280;11841;49.368;20.962;2022-10-17T13:57:20;97120.38;;;16.74;81.75
23339;BME280;11841;49.368;20.962;2022-10-17T13:59:48;97118.31;;;16.70;82.25
23339;BME280;11841;49.368;20.962;2022-10-17T14:02:16;97121.00;;;16.70;82.06
23339;BME280;11841;49.368;20.962;2022-10-17T14:04:44;97122.50;;;16.66;82.08
23339;BME280;11841;49.368;20.962;2022-10-17T14:10:36;97128.34;;;16.56;82.57
23339;BME280;11841;49.368;20.962;2022-10-17T14:13:04;97125.09;;;16.54;82.77
23339;BME280;11841;49.368;20.962;2022-10-17T14:15:34;97124.91;;;16.49;82.95
23339;BME280;11841;49.368;20.962;2022-10-17T14:18:01;97122.84;;;16.51;82.82
23339;BME280;11841;49.368;20.962;2022-10-17T14:20:33;97128.03;;;16.46;82.48
23339;BME280;11841;49.368;20.962;2022-10-17T14:26:12;97123.53;;;16.40;83.13
23339;BME280;11841;49.368;20.962;2022-10-17T14:28:40;97125.00;;;16.36;83.60
23339;BME280;11841;49.368;20.962;2022-10-17T14:33:47;97128.38;;;16.25;83.56
23339;BME280;11841;49.368;20.962;2022-10-17T14:36:16;97139.66;;;16.27;83.71
23339;BME280;11841;49.368;20.962;2022-10-17T14:38:44;97135.22;;;16.21;83.85
23339;BME280;11841;49.368;20.962;2022-10-17T14:41:15;97135.66;;;16.18;83.97
23339;BME280;11841;49.368;20.962;2022-10-17T14:44:05;97139.34;;;16.17;83.99
23339;BME280;11841;49.368;20.962;2022-10-17T14:46:35;97127.84;;;16.17;83.93
23339;BME280;11841;49.368;20.962;2022-10-17T14:49:06;97136.09;;;16.15;84.07
23339;BME280;11841;49.368;20.962;2022-10-17T14:51:33;97143.50;;;16.13;84.12
23339;BME280;11841;49.368;20.962;2022-10-17T14:54:26;97143.94;;;16.10;84.06